Zachary, Louisiana
Current Conditions -  °F | °C
As of 11:53 PM on Sunday 19 Oct 2014 (Local Time) from KBTR Reporting Station
Clear Clear  
Wind Chill: 14°   Ceiling: Unl
Heat Index: 14°   Visibility: 10mi
Dew Point: 12°   Wind: 0mph
Humidity: 87%   Direction: NA
Pressure: 30.07"   Gusts: NA
Location:  30.65°N, 91.16°W
Report Text: KBTR 200453Z AUTO 00000KT 10SM CLR 14/12 A3007 RMK AO2 SLP182 T01440122 TSNO $
Loading
Personal Weather Stations






























Interactive Weather Map
Tropical Storm Tracking
New forecast layout! Learn more

10-Day Weather Forecast

Advertisements
Track Severe Weather on mobile